»·PEaware :: N290TW KWVI-KMRY

N290TW :: KWVI-KMRY

FLIGHT INFORMATION

Flight Status: Arrived
Operator: Privately registered:
United States
More flights under this callsign
Pilot: Chris B. (23589)
Aircraft: CESSNA 172 SKYHAWK
(C172)
More flights by this aircraft type
Origin: KWVI Watsonville Mun
United States
Destination: KMRY Monterey Peninsula
United States
More flights between these airports :: More routes between these airports
Route: SNS
File this flight plan on PilotEdge
Remarks: MinImums weather set 28L Y
Altitude:
(Current/Filed)
5,000ft
Speed:
(Current/Filed)
110kts
Departed: 08-Jun-20 07:07 PM
Arrived: 08-Jun-20 07:37 PM
Distance/Time
Traveled:
21nm/0:30
Distance/Time
To Go:
Arrived

Flight Plot

Page will automatically refresh every two minutes.

Flight plan parsing failed; only flown route is shown


Map Options




Map Legend


Flown Route
Filed Route
Departure Airport
Arrival Airport
Navaid (VOR, NDB)
Fix

Horizontal Profiles

Position Reports

Time Latitude Longitude Heading Altitude Ground
Speed
08-Jun-20 18:45 36.935537 -121.788879 205 147ft 0kts
08-Jun-20 18:46 36.935537 -121.788879 205 147ft 0kts
08-Jun-20 18:47 36.935537 -121.788879 205 147ft 0kts
08-Jun-20 18:48 36.935537 -121.788879 205 147ft 0kts
08-Jun-20 18:50 36.935537 -121.788879 205 147ft 0kts
08-Jun-20 18:51 36.935537 -121.788879 205 147ft 0kts
08-Jun-20 18:52 36.935537 -121.788879 205 147ft 0kts
08-Jun-20 18:53 36.935537 -121.788879 205 147ft 0kts
08-Jun-20 18:54 36.935537 -121.788879 205 147ft 0kts
08-Jun-20 18:55 36.935537 -121.788879 205 147ft 0kts
08-Jun-20 18:56 36.935537 -121.788879 205 147ft 0kts
08-Jun-20 18:57 36.935537 -121.788879 205 147ft 0kts
08-Jun-20 18:58 36.935537 -121.788879 205 147ft 0kts
08-Jun-20 18:59 36.935537 -121.788879 205 147ft 0kts
08-Jun-20 19:00 36.935537 -121.788879 205 147ft 0kts
08-Jun-20 19:01 36.935770 -121.789288 37 148ft 13kts
08-Jun-20 19:02 36.938536 -121.787239 352 149ft 0kts
08-Jun-20 19:03 36.938536 -121.787239 352 149ft 0kts
08-Jun-20 19:04 36.938536 -121.787239 352 149ft 0kts
08-Jun-20 19:05 36.938536 -121.787239 352 149ft 0kts
08-Jun-20 19:06 36.938684 -121.787268 349 149ft 6kts
08-Jun-20 19:06 36.932595 -121.792783 212 337ft 74kts
08-Jun-20 19:08 36.914826 -121.812884 226 1444ft 75kts
08-Jun-20 19:08 36.902002 -121.827898 217 2158ft 76kts
08-Jun-20 19:09 36.884757 -121.843521 225 2946ft 78kts
08-Jun-20 19:11 36.869270 -121.843795 122 3778ft 77kts
08-Jun-20 19:11 36.858324 -121.825687 137 4409ft 79kts
08-Jun-20 19:12 36.840873 -121.805665 137 4911ft 107kts
08-Jun-20 19:13 36.816773 -121.778278 137 4899ft 119kts
08-Jun-20 19:14 36.792141 -121.750028 137 4898ft 120kts
08-Jun-20 19:15 36.767420 -121.721676 137 4898ft 120kts
08-Jun-20 19:16 36.742757 -121.693416 137 4898ft 120kts
08-Jun-20 19:17 36.718102 -121.665189 137 4898ft 120kts
08-Jun-20 19:18 36.693454 -121.636997 137 4898ft 120kts
08-Jun-20 19:19 36.668848 -121.608839 136 4898ft 120kts
08-Jun-20 19:20 36.638225 -121.592496 160 4898ft 120kts
08-Jun-20 19:21 36.606454 -121.579135 161 4898ft 120kts
08-Jun-20 19:22 36.578870 -121.559740 97 4896ft 119kts
08-Jun-20 19:23 36.590001 -121.520934 67 4898ft 120kts
08-Jun-20 19:24 36.602661 -121.482189 67 4898ft 120kts
08-Jun-20 19:25 36.619960 -121.449113 3 4895ft 119kts
08-Jun-20 19:26 36.625302 -121.479934 238 4900ft 119kts
08-Jun-20 19:27 36.608500 -121.515011 237 4960ft 117kts
08-Jun-20 19:28 36.591510 -121.549941 237 4933ft 115kts
08-Jun-20 19:29 36.575506 -121.584921 250 4817ft 117kts
08-Jun-20 19:30 36.566289 -121.624096 250 4230ft 119kts
08-Jun-20 19:31 36.567227 -121.664119 274 3592ft 114kts
08-Jun-20 19:32 36.570342 -121.703998 276 2965ft 110kts
08-Jun-20 19:33 36.573428 -121.742755 274 1997ft 113kts
08-Jun-20 19:34 36.576578 -121.781172 276 1046ft 112kts
08-Jun-20 19:35 36.578917 -121.818581 273 729ft 84kts
08-Jun-20 19:36 36.585803 -121.840874 290 229ft 32kts

Navigation Log

Ident Type
Flight plan parsing failed, navigation log unavailable